createdAt,value
2023-03-05T00:00:39.265Z,9.11
2023-03-05T00:01:41.093Z,9.15
2023-03-05T00:02:43.125Z,9.16
2023-03-05T00:03:45.822Z,9.16
2023-03-05T00:04:47.393Z,9.17
2023-03-05T00:05:48.950Z,9.16
2023-03-05T00:06:50.864Z,9.17
2023-03-05T00:07:52.457Z,9.16
2023-03-05T00:08:56.716Z,9.13
2023-03-05T00:10:03.012Z,9.03
2023-03-05T00:11:07.807Z,8.95
2023-03-05T00:12:09.612Z,8.83
2023-03-05T00:13:11.160Z,8.76
2023-03-05T00:14:13.174Z,8.68
2023-03-05T00:15:14.817Z,8.71
2023-03-05T00:16:16.646Z,8.71
2023-03-05T00:17:18.231Z,8.76
2023-03-05T00:18:20.388Z,8.82
2023-03-05T00:19:21.954Z,8.86
2023-03-05T00:20:23.550Z,8.77
2023-03-05T00:21:38.017Z,8.64
2023-03-05T00:22:39.571Z,8.58
2023-03-05T00:23:41.135Z,8.54
2023-03-05T00:24:42.640Z,8.47
2023-03-05T00:25:46.017Z,8.45
2023-03-05T00:26:48.079Z,8.51
2023-03-05T00:27:49.617Z,8.57
2023-03-05T00:28:52.462Z,8.62
2023-03-05T00:29:53.977Z,8.70
2023-03-05T00:30:59.893Z,8.75
2023-03-05T00:32:01.494Z,8.81
2023-03-05T00:33:03.196Z,8.86
2023-03-05T00:34:08.497Z,8.90
2023-03-05T00:35:10.282Z,8.91
2023-03-05T00:36:11.899Z,8.95
2023-03-05T00:37:13.470Z,8.99
2023-03-05T00:38:15.022Z,9.02
2023-03-05T00:39:18.120Z,9.03
2023-03-05T00:40:20.029Z,9.02
2023-03-05T00:41:21.911Z,9.01
2023-03-05T00:42:23.461Z,8.99
2023-03-05T00:43:25.078Z,8.98
2023-03-05T00:44:26.677Z,8.98
2023-03-05T00:45:28.225Z,8.98
2023-03-05T00:46:29.979Z,8.97
2023-03-05T00:47:31.606Z,8.94
2023-03-05T00:48:33.094Z,8.91
2023-03-05T00:49:34.817Z,8.91
2023-03-05T00:50:36.324Z,8.91
2023-03-05T00:51:38.032Z,8.89
2023-03-05T00:52:39.598Z,8.92
2023-03-05T00:53:41.164Z,8.93
2023-03-05T00:54:42.692Z,8.97
2023-03-05T00:55:44.261Z,8.98
2023-03-05T00:56:46.483Z,8.97
2023-03-05T00:57:48.113Z,8.96
2023-03-05T00:58:49.685Z,8.91
2023-03-05T00:59:51.186Z,8.88
2023-03-05T01:00:52.752Z,8.82
2023-03-05T01:01:54.316Z,8.83
2023-03-05T01:02:55.984Z,8.79
2023-03-05T01:03:59.580Z,8.77
2023-03-05T01:05:01.163Z,8.78
2023-03-05T01:06:07.959Z,8.72
2023-03-05T01:07:09.474Z,8.61
2023-03-05T01:08:11.741Z,8.50
2023-03-05T01:09:13.420Z,8.45
2023-03-05T01:10:14.969Z,8.35
2023-03-05T01:11:16.662Z,8.31
2023-03-05T01:12:18.216Z,8.28
2023-03-05T01:13:19.922Z,8.30
2023-03-05T01:14:21.524Z,8.31
2023-03-05T01:15:24.054Z,8.36
2023-03-05T01:16:25.714Z,8.37
2023-03-05T01:17:27.483Z,8.35
2023-03-05T01:18:29.156Z,8.32
2023-03-05T01:19:30.712Z,8.31
2023-03-05T01:20:32.281Z,8.24
2023-03-05T01:21:35.856Z,8.25
2023-03-05T01:22:37.371Z,8.29
2023-03-05T01:23:38.955Z,8.29
2023-03-05T01:24:40.562Z,8.30
2023-03-05T01:25:42.242Z,8.34
2023-03-05T01:26:43.844Z,8.36
2023-03-05T01:27:46.134Z,8.40
2023-03-05T01:28:47.755Z,8.43
2023-03-05T01:29:49.329Z,8.46
2023-03-05T01:30:50.930Z,8.51
2023-03-05T01:31:52.653Z,8.52
2023-03-05T01:32:54.996Z,8.45
2023-03-05T01:33:56.592Z,8.38
2023-03-05T01:34:58.106Z,8.33
2023-03-05T01:35:59.695Z,8.22
2023-03-05T01:37:01.236Z,8.12
2023-03-05T01:38:02.757Z,8.05
2023-03-05T01:39:04.462Z,8.04
2023-03-05T01:40:06.771Z,8.03
2023-03-05T01:41:08.753Z,8.03
2023-03-05T01:42:10.319Z,8.05
2023-03-05T01:43:12.020Z,8.08
2023-03-05T01:44:26.536Z,8.16
2023-03-05T01:45:32.548Z,8.23
2023-03-05T01:46:38.729Z,8.29
2023-03-05T01:47:40.573Z,8.35
2023-03-05T01:48:45.920Z,8.45
2023-03-05T01:49:47.550Z,8.51
2023-03-05T01:50:49.248Z,8.57
2023-03-05T01:52:00.046Z,8.65
2023-03-05T01:53:06.565Z,8.69
2023-03-05T01:54:10.619Z,8.73
2023-03-05T01:55:18.043Z,8.78
2023-03-05T01:56:19.946Z,8.80
2023-03-05T01:57:36.879Z,8.82
2023-03-05T01:58:39.842Z,8.81
2023-03-05T01:59:44.720Z,8.82
2023-03-05T02:00:48.369Z,8.79
2023-03-05T02:01:55.934Z,8.65
2023-03-05T02:03:02.197Z,8.57
2023-03-05T02:04:04.876Z,8.55
2023-03-05T02:05:29.911Z,8.54
2023-03-05T02:06:31.637Z,8.54
2023-03-05T02:07:33.802Z,8.53
2023-03-05T02:08:35.357Z,8.51
2023-03-05T02:09:41.195Z,8.40
2023-03-05T02:10:45.793Z,8.23
2023-03-05T02:11:47.393Z,8.16
2023-03-05T02:12:50.203Z,8.05
2023-03-05T02:13:52.078Z,8.06
2023-03-05T02:14:59.280Z,7.97
2023-03-05T02:16:02.247Z,8.00
2023-03-05T02:17:04.027Z,8.11
2023-03-05T02:18:07.289Z,8.21
2023-03-05T02:19:11.386Z,8.30
2023-03-05T02:20:15.335Z,8.37
2023-03-05T02:21:28.528Z,8.47
2023-03-05T02:22:30.115Z,8.54
2023-03-05T02:23:36.364Z,8.62
2023-03-05T02:24:37.905Z,8.65
2023-03-05T02:25:39.507Z,8.68
2023-03-05T02:26:44.698Z,8.71
2023-03-05T02:28:23.240Z,8.83
2023-03-05T02:29:25.045Z,8.88
2023-03-05T02:30:27.489Z,8.89
2023-03-05T02:31:29.606Z,8.90
2023-03-05T02:32:31.199Z,8.88
2023-03-05T02:33:32.781Z,8.86
2023-03-05T02:34:34.267Z,8.87
2023-03-05T02:35:36.279Z,8.88
2023-03-05T02:36:37.947Z,8.90
2023-03-05T02:37:39.985Z,8.91
2023-03-05T02:38:43.438Z,8.93
2023-03-05T02:39:45.057Z,8.95
2023-03-05T02:40:46.701Z,8.96
2023-03-05T02:41:48.283Z,8.95
2023-03-05T02:42:49.813Z,8.99
2023-03-05T02:43:51.457Z,9.08
2023-03-05T02:44:52.963Z,9.08
2023-03-05T02:45:54.556Z,9.00
2023-03-05T02:46:56.876Z,8.90
2023-03-05T02:47:58.459Z,8.86
2023-03-05T02:49:00.369Z,8.83
2023-03-05T02:50:02.310Z,8.83
2023-03-05T02:51:06.175Z,8.80
2023-03-05T02:52:07.876Z,8.77
2023-03-05T02:53:09.535Z,8.78
2023-03-05T02:54:11.128Z,8.77
2023-03-05T02:55:12.687Z,8.77
2023-03-05T02:56:14.326Z,8.67
2023-03-05T02:57:16.162Z,8.61
2023-03-05T02:58:18.243Z,8.54
2023-03-05T02:59:19.795Z,8.46
2023-03-05T03:00:21.646Z,8.40
2023-03-05T03:01:23.319Z,8.42
2023-03-05T03:02:24.955Z,8.43
2023-03-05T03:03:26.601Z,8.37
2023-03-05T03:04:28.176Z,8.35
2023-03-05T03:05:29.764Z,8.30
2023-03-05T03:06:31.321Z,8.27
2023-03-05T03:07:34.495Z,8.19
2023-03-05T03:08:36.235Z,8.12
2023-03-05T03:09:38.226Z,8.06
2023-03-05T03:10:39.750Z,8.07
2023-03-05T03:11:41.338Z,8.11
2023-03-05T03:12:45.002Z,8.17
2023-03-05T03:13:46.494Z,8.22
2023-03-05T03:14:48.164Z,8.27
2023-03-05T03:15:49.697Z,8.30
2023-03-05T03:16:51.233Z,8.34
2023-03-05T03:17:52.820Z,8.37
2023-03-05T03:18:54.400Z,8.36
2023-03-05T03:19:55.963Z,8.38
2023-03-05T03:20:57.535Z,8.40
2023-03-05T03:21:59.132Z,8.44
2023-03-05T03:23:00.796Z,8.48
2023-03-05T03:24:02.591Z,8.50
2023-03-05T03:25:05.250Z,8.52
2023-03-05T03:26:07.179Z,8.51
2023-03-05T03:27:08.856Z,8.51
2023-03-05T03:28:10.393Z,8.50
2023-03-05T03:29:11.966Z,8.46
2023-03-05T03:30:15.129Z,8.45
2023-03-05T03:31:17.416Z,8.44
2023-03-05T03:32:19.067Z,8.45
2023-03-05T03:33:20.634Z,8.47
2023-03-05T03:34:22.462Z,8.51
2023-03-05T03:35:24.081Z,8.54
2023-03-05T03:36:25.754Z,8.54
2023-03-05T03:37:27.664Z,8.55
2023-03-05T03:38:29.230Z,8.56
2023-03-05T03:39:30.879Z,8.54
2023-03-05T03:40:32.487Z,8.55
2023-03-05T03:41:34.290Z,8.54
2023-03-05T03:42:36.130Z,8.57
2023-03-05T03:43:37.861Z,8.61
2023-03-05T03:44:39.412Z,8.64
2023-03-05T03:45:45.150Z,8.65
2023-03-05T03:46:47.998Z,8.67
2023-03-05T03:47:50.263Z,8.69
2023-03-05T03:48:51.850Z,8.73
2023-03-05T03:49:56.316Z,8.75
2023-03-05T03:50:57.894Z,8.74
2023-03-05T03:51:59.660Z,8.75
2023-03-05T03:53:01.841Z,8.61
2023-03-05T03:54:03.440Z,8.48
2023-03-05T03:55:05.362Z,8.43
2023-03-05T03:56:07.155Z,8.43
2023-03-05T03:57:09.497Z,8.43
2023-03-05T03:58:11.126Z,8.40
2023-03-05T03:59:13.040Z,8.46
2023-03-05T04:00:14.958Z,8.52
2023-03-05T04:01:16.668Z,8.57
2023-03-05T04:02:18.405Z,8.62
2023-03-05T04:03:20.027Z,8.67
2023-03-05T04:04:21.655Z,8.69
2023-03-05T04:05:23.644Z,8.73
2023-03-05T04:06:25.332Z,8.79
2023-03-05T04:07:26.902Z,8.83
2023-03-05T04:08:28.511Z,8.87
2023-03-05T04:09:30.073Z,8.88
2023-03-05T04:10:31.628Z,8.90
2023-03-05T04:11:33.166Z,8.91
2023-03-05T04:12:34.799Z,8.88
2023-03-05T04:13:36.335Z,8.84
2023-03-05T04:14:38.065Z,8.75
2023-03-05T04:15:39.748Z,8.64
2023-03-05T04:16:41.362Z,8.58
2023-03-05T04:17:42.918Z,8.47
2023-03-05T04:18:44.476Z,8.45
2023-03-05T04:19:46.099Z,8.32
2023-03-05T04:20:47.932Z,8.27
2023-03-05T04:21:49.503Z,8.34
2023-03-05T04:22:51.164Z,8.41
2023-03-05T04:23:52.714Z,8.49
2023-03-05T04:24:54.306Z,8.56
2023-03-05T04:25:55.893Z,8.64
2023-03-05T04:26:57.488Z,8.71
2023-03-05T04:27:59.182Z,8.75
2023-03-05T04:29:00.737Z,8.81
2023-03-05T04:30:02.248Z,8.88
2023-03-05T04:31:04.507Z,8.96
2023-03-05T04:32:06.486Z,9.06
2023-03-05T04:33:08.077Z,9.12
2023-03-05T04:34:09.723Z,9.13
2023-03-05T04:35:11.335Z,9.07
2023-03-05T04:36:12.840Z,8.95
2023-03-05T04:37:14.462Z,8.82
2023-03-05T04:38:16.128Z,8.73
2023-03-05T04:39:17.737Z,8.70
2023-03-05T04:40:19.575Z,8.69
2023-03-05T04:41:21.181Z,8.61
2023-03-05T04:42:22.751Z,8.60
2023-03-05T04:43:24.305Z,8.47
2023-03-05T04:44:26.131Z,8.48
2023-03-05T04:45:27.819Z,8.44
2023-03-05T04:46:29.488Z,8.41
2023-03-05T04:47:31.035Z,8.45
2023-03-05T04:48:32.633Z,8.53
2023-03-05T04:49:34.166Z,8.53
2023-03-05T04:50:35.759Z,8.55
2023-03-05T04:51:37.296Z,8.53
2023-03-05T04:52:43.781Z,8.56
2023-03-05T04:53:45.348Z,8.58
2023-03-05T04:54:46.910Z,8.60
2023-03-05T04:55:55.824Z,8.65
2023-03-05T04:56:57.407Z,8.69
2023-03-05T04:57:59.287Z,8.68
2023-03-05T04:59:00.870Z,8.76
2023-03-05T05:00:06.840Z,8.76
2023-03-05T05:01:08.434Z,8.79
2023-03-05T05:02:09.976Z,8.79
2023-03-05T05:03:11.677Z,8.75
2023-03-05T05:04:13.484Z,8.76
2023-03-05T05:05:21.734Z,8.74
2023-03-05T05:06:23.248Z,8.78
2023-03-05T05:07:24.784Z,8.80
2023-03-05T05:08:27.446Z,8.72
2023-03-05T05:09:28.978Z,8.68
2023-03-05T05:10:31.636Z,8.66
2023-03-05T05:11:33.200Z,8.67
2023-03-05T05:12:35.281Z,8.68
2023-03-05T05:13:36.827Z,8.72
2023-03-05T05:14:38.734Z,8.78
2023-03-05T05:15:40.819Z,8.81
2023-03-05T05:16:42.381Z,8.83
2023-03-05T05:17:44.164Z,8.88
2023-03-05T05:18:46.318Z,8.89
2023-03-05T05:19:47.955Z,8.85
2023-03-05T05:20:49.792Z,8.82
2023-03-05T05:21:51.345Z,8.85
2023-03-05T05:22:52.857Z,8.81
2023-03-05T05:23:54.437Z,8.80
2023-03-05T05:24:56.624Z,8.81
2023-03-05T05:26:03.128Z,8.67
2023-03-05T05:27:04.684Z,8.59
2023-03-05T05:28:06.252Z,8.51
2023-03-05T05:29:07.891Z,8.49
2023-03-05T05:30:10.243Z,8.50
2023-03-05T05:31:14.676Z,8.55
2023-03-05T05:32:18.015Z,8.57
2023-03-05T05:33:19.670Z,8.57
2023-03-05T05:34:21.249Z,8.59
2023-03-05T05:35:22.912Z,8.62
2023-03-05T05:36:24.610Z,8.61
2023-03-05T05:37:27.368Z,8.57
2023-03-05T05:38:28.879Z,8.54
2023-03-05T05:39:30.673Z,8.56
2023-03-05T05:40:32.300Z,8.52
2023-03-05T05:41:33.850Z,8.52
2023-03-05T05:42:35.550Z,8.46
2023-03-05T05:43:37.627Z,8.38
2023-03-05T05:44:39.193Z,8.28
2023-03-05T05:45:40.965Z,8.27
2023-03-05T05:46:42.640Z,8.17
2023-03-05T05:47:44.235Z,8.13
2023-03-05T05:48:46.705Z,8.16
2023-03-05T05:49:48.237Z,8.12
2023-03-05T05:50:49.731Z,8.14
2023-03-05T05:51:51.267Z,8.12
2023-03-05T05:52:52.901Z,8.04
2023-03-05T05:53:54.629Z,7.99
2023-03-05T05:54:56.295Z,8.03
2023-03-05T05:55:57.848Z,8.04
2023-03-05T05:56:59.540Z,8.05
2023-03-05T05:58:01.099Z,8.06
2023-03-05T05:59:02.636Z,8.10
2023-03-05T06:00:09.038Z,8.10
2023-03-05T06:01:29.189Z,8.09
2023-03-05T06:02:30.819Z,8.13
2023-03-05T06:03:32.465Z,8.16
2023-03-05T06:04:35.750Z,8.17
2023-03-05T06:05:37.354Z,8.18
2023-03-05T06:06:38.906Z,8.23
2023-03-05T06:07:40.666Z,8.22
2023-03-05T06:08:42.232Z,8.17
2023-03-05T06:09:44.049Z,8.13
2023-03-05T06:10:45.690Z,8.13
2023-03-05T06:11:47.433Z,8.05
2023-03-05T06:12:49.014Z,8.09
2023-03-05T06:13:50.713Z,8.14
2023-03-05T06:14:52.338Z,8.22
2023-03-05T06:16:02.128Z,8.24
2023-03-05T06:17:03.677Z,8.24
2023-03-05T06:18:05.306Z,8.26
2023-03-05T06:19:07.002Z,8.32
2023-03-05T06:20:09.236Z,8.37
2023-03-05T06:21:13.252Z,8.35
2023-03-05T06:22:14.820Z,8.37
2023-03-05T06:23:16.359Z,8.36
2023-03-05T06:24:19.356Z,8.35
2023-03-05T06:25:20.999Z,8.29
2023-03-05T06:26:22.904Z,8.29
2023-03-05T06:27:24.477Z,8.31
2023-03-05T06:28:26.510Z,8.31
2023-03-05T06:29:28.074Z,8.31
2023-03-05T06:30:29.666Z,8.27
2023-03-05T06:31:31.424Z,8.32
2023-03-05T06:32:33.155Z,8.33
2023-03-05T06:33:36.060Z,8.29
2023-03-05T06:34:37.653Z,8.16
2023-03-05T06:35:42.548Z,8.11
2023-03-05T06:36:44.293Z,8.08
2023-03-05T06:37:45.966Z,8.17
2023-03-05T06:38:48.958Z,8.16
2023-03-05T06:39:50.690Z,8.13
2023-03-05T06:40:52.534Z,8.10
2023-03-05T06:41:54.131Z,8.12
2023-03-05T06:42:55.752Z,8.10
2023-03-05T06:43:59.983Z,8.07
2023-03-05T06:45:01.541Z,8.06
2023-03-05T06:46:12.916Z,7.99
2023-03-05T06:47:14.658Z,7.94
2023-03-05T06:48:16.173Z,7.96
2023-03-05T06:49:17.798Z,7.93
2023-03-05T06:50:19.491Z,7.95
2023-03-05T06:51:29.915Z,7.93
2023-03-05T06:52:31.446Z,7.87
2023-03-05T06:53:33.033Z,7.89
2023-03-05T06:54:34.753Z,7.88
2023-03-05T06:55:39.779Z,7.83
2023-03-05T06:56:43.798Z,7.84
2023-03-05T06:57:45.423Z,7.86
2023-03-05T06:58:49.420Z,7.83
2023-03-05T06:59:51.008Z,7.75
2023-03-05T07:00:52.601Z,7.75
2023-03-05T07:01:54.195Z,7.65
2023-03-05T07:02:55.739Z,7.67
2023-03-05T07:04:00.617Z,7.75
2023-03-05T07:05:02.281Z,7.81
2023-03-05T07:06:09.478Z,7.80
2023-03-05T07:07:11.057Z,7.76
2023-03-05T07:08:12.637Z,7.85
2023-03-05T07:09:15.959Z,7.81
2023-03-05T07:10:17.558Z,7.82
2023-03-05T07:11:22.244Z,7.82
2023-03-05T07:12:23.772Z,7.86
2023-03-05T07:13:28.655Z,7.96
2023-03-05T07:14:30.196Z,7.95
2023-03-05T07:15:31.812Z,7.85
2023-03-05T07:16:34.851Z,7.86
2023-03-05T07:17:36.609Z,7.88
2023-03-05T07:18:38.115Z,7.87
2023-03-05T07:19:39.680Z,7.92
2023-03-05T07:20:41.453Z,8.02
2023-03-05T07:21:43.019Z,8.01
2023-03-05T07:22:44.562Z,8.07
2023-03-05T07:23:46.532Z,8.12
2023-03-05T07:24:48.112Z,8.12
2023-03-05T07:25:49.668Z,8.18
2023-03-05T07:26:51.296Z,8.19
2023-03-05T07:27:52.880Z,8.26
2023-03-05T07:28:55.253Z,8.26
2023-03-05T07:29:56.839Z,8.23
2023-03-05T07:31:13.563Z,8.24
2023-03-05T07:32:15.086Z,8.17
2023-03-05T07:33:16.613Z,8.19
2023-03-05T07:34:18.452Z,8.19
2023-03-05T07:35:20.185Z,8.16
2023-03-05T07:36:23.774Z,8.09
2023-03-05T07:37:25.364Z,8.03
2023-03-05T07:38:27.487Z,7.97
2023-03-05T07:39:29.099Z,7.94
2023-03-05T07:40:30.594Z,7.93
2023-03-05T07:41:32.425Z,7.90
2023-03-05T07:42:34.098Z,7.96
2023-03-05T07:43:35.732Z,7.97
2023-03-05T07:44:38.964Z,7.92
2023-03-05T07:45:42.244Z,7.93
2023-03-05T07:46:43.885Z,8.01
2023-03-05T07:47:45.488Z,8.03
2023-03-05T07:48:47.158Z,7.99
2023-03-05T07:49:49.107Z,7.92
2023-03-05T07:50:51.080Z,7.92
2023-03-05T07:51:52.657Z,7.98
2023-03-05T07:52:54.200Z,7.97
2023-03-05T07:53:57.575Z,8.01
2023-03-05T07:54:59.111Z,8.01
2023-03-05T07:56:00.960Z,7.99
2023-03-05T07:57:02.491Z,8.03
2023-03-05T07:58:03.988Z,7.96
2023-03-05T07:59:08.785Z,7.98
2023-03-05T08:00:11.086Z,7.92
2023-03-05T08:01:14.988Z,7.98
2023-03-05T08:02:16.593Z,7.97
2023-03-05T08:03:18.692Z,7.99
2023-03-05T08:04:20.235Z,7.99
2023-03-05T08:05:21.788Z,7.94
2023-03-05T08:06:24.163Z,7.96
2023-03-05T08:07:25.731Z,8.00
2023-03-05T08:08:27.307Z,8.04
2023-03-05T08:09:29.188Z,8.10
2023-03-05T08:10:31.109Z,8.10
2023-03-05T08:11:33.022Z,8.11
2023-03-05T08:12:34.840Z,8.21
2023-03-05T08:13:37.152Z,8.25
2023-03-05T08:14:38.774Z,8.22
2023-03-05T08:15:40.526Z,8.23
2023-03-05T08:16:42.168Z,8.24
2023-03-05T08:17:43.674Z,8.27
2023-03-05T08:18:45.733Z,8.29
2023-03-05T08:19:47.277Z,8.27
2023-03-05T08:20:48.872Z,8.26
2023-03-05T08:21:50.441Z,8.14
2023-03-05T08:22:52.139Z,8.16
2023-03-05T08:23:53.768Z,8.13
2023-03-05T08:24:56.473Z,8.06
2023-03-05T08:25:58.018Z,8.05
2023-03-05T08:27:00.556Z,8.07
2023-03-05T08:28:02.150Z,8.07
2023-03-05T08:29:04.737Z,8.09
2023-03-05T08:30:07.722Z,8.10
2023-03-05T08:31:14.196Z,8.08
2023-03-05T08:32:15.860Z,7.97
2023-03-05T08:33:17.986Z,7.92
2023-03-05T08:34:22.349Z,7.85
2023-03-05T08:35:23.963Z,7.89
2023-03-05T08:36:26.014Z,7.94
2023-03-05T08:37:27.525Z,7.97
2023-03-05T08:38:29.054Z,7.95
2023-03-05T08:39:30.702Z,7.97
2023-03-05T08:40:32.639Z,7.93
2023-03-05T08:41:34.666Z,7.96
2023-03-05T08:42:36.268Z,7.94
2023-03-05T08:43:37.846Z,7.98
2023-03-05T08:44:39.439Z,8.07
2023-03-05T08:45:40.977Z,8.04
2023-03-05T08:46:42.733Z,8.09
2023-03-05T08:47:44.358Z,8.04
2023-03-05T08:48:45.898Z,8.05
2023-03-05T08:49:47.592Z,8.03
2023-03-05T08:50:49.924Z,8.07
2023-03-05T08:51:51.494Z,8.14
2023-03-05T08:52:53.098Z,8.18
2023-03-05T08:53:56.521Z,8.16
2023-03-05T08:54:58.189Z,8.14
2023-03-05T08:56:00.136Z,8.13
2023-03-05T08:57:01.710Z,8.10
2023-03-05T08:58:03.540Z,8.09
2023-03-05T08:59:05.497Z,8.13
2023-03-05T09:00:07.660Z,8.09
2023-03-05T09:01:09.862Z,8.01
2023-03-05T09:02:13.420Z,8.04
2023-03-05T09:03:15.166Z,8.01
2023-03-05T09:04:17.022Z,8.02
2023-03-05T09:05:19.491Z,8.09
2023-03-05T09:06:21.234Z,8.07
2023-03-05T09:07:22.763Z,8.10
2023-03-05T09:08:24.274Z,8.14
2023-03-05T09:09:25.865Z,8.20
2023-03-05T09:10:27.430Z,8.23
2023-03-05T09:11:28.982Z,8.22
2023-03-05T09:12:30.534Z,8.27
2023-03-05T09:13:32.839Z,8.23
2023-03-05T09:14:34.383Z,8.21
2023-03-05T09:15:36.053Z,8.20
2023-03-05T09:16:40.438Z,8.19
2023-03-05T09:17:43.100Z,8.18
2023-03-05T09:18:45.155Z,8.11
2023-03-05T09:19:46.888Z,8.11
2023-03-05T09:20:48.428Z,8.14
2023-03-05T09:21:50.277Z,8.14
2023-03-05T09:22:51.844Z,8.24
2023-03-05T09:23:53.515Z,8.31
2023-03-05T09:24:55.099Z,8.25
2023-03-05T09:25:56.623Z,8.23
2023-03-05T09:26:59.881Z,8.33
2023-03-05T09:28:01.516Z,8.39
2023-03-05T09:29:03.627Z,8.39
2023-03-05T09:30:05.994Z,8.41
2023-03-05T09:31:09.273Z,8.42
2023-03-05T09:32:10.939Z,8.40
2023-03-05T09:33:12.619Z,8.43
2023-03-05T09:34:14.127Z,8.45
2023-03-05T09:35:15.684Z,8.49
2023-03-05T09:36:23.964Z,8.42
2023-03-05T09:37:25.862Z,8.34
2023-03-05T09:38:27.916Z,8.35
2023-03-05T09:39:29.548Z,8.42
2023-03-05T09:40:54.322Z,8.44
2023-03-05T09:41:55.808Z,8.50
2023-03-05T09:43:19.506Z,8.48
2023-03-05T09:44:52.243Z,8.39
2023-03-05T09:46:26.034Z,8.31
2023-03-05T09:47:48.432Z,8.28
2023-03-05T09:48:53.539Z,8.30
2023-03-05T09:50:13.843Z,8.36
2023-03-05T09:51:22.335Z,8.40
2023-03-05T09:52:34.835Z,8.44
2023-03-05T09:53:39.390Z,8.50
2023-03-05T09:54:45.596Z,8.53
2023-03-05T09:56:01.535Z,8.62
2023-03-05T09:57:05.436Z,8.63
2023-03-05T09:58:14.297Z,8.63
2023-03-05T09:59:39.840Z,8.64
2023-03-05T10:00:56.121Z,8.66
2023-03-05T10:02:05.161Z,8.67
2023-03-05T10:03:16.374Z,8.65
2023-03-05T10:04:33.263Z,8.68
2023-03-05T10:05:50.648Z,8.70
2023-03-05T10:06:52.165Z,8.77
2023-03-05T10:07:59.326Z,8.80
2023-03-05T10:09:10.128Z,8.76
2023-03-05T10:10:22.464Z,8.78
2023-03-05T10:11:50.916Z,8.79
2023-03-05T10:12:57.447Z,8.85
2023-03-05T10:13:59.140Z,8.87
2023-03-05T10:15:03.120Z,8.93
2023-03-05T10:16:34.917Z,8.87
2023-03-05T10:17:58.462Z,8.92
2023-03-05T10:19:11.066Z,8.94
2023-03-05T10:20:32.434Z,9.04
2023-03-05T10:21:40.385Z,9.04
2023-03-05T10:23:00.416Z,9.10
2023-03-05T10:24:25.505Z,9.14
2023-03-05T10:25:55.338Z,9.17
2023-03-05T10:27:04.583Z,9.18
2023-03-05T10:28:26.061Z,9.11
2023-03-05T10:29:39.623Z,9.13
2023-03-05T10:31:09.106Z,9.19
2023-03-05T10:33:04.840Z,9.27
2023-03-05T10:34:22.615Z,9.24
2023-03-05T10:35:36.003Z,9.28
2023-03-05T10:37:14.469Z,9.29
2023-03-05T10:38:28.578Z,9.33
2023-03-05T10:39:48.354Z,9.46
2023-03-05T10:40:55.541Z,9.57
2023-03-05T10:42:20.198Z,9.62
2023-03-05T10:43:35.436Z,9.61
2023-03-05T10:44:57.550Z,9.65
2023-03-05T10:46:02.792Z,9.66
2023-03-05T10:47:15.050Z,9.68
2023-03-05T10:48:40.968Z,9.70
2023-03-05T10:49:51.706Z,9.74
2023-03-05T10:51:02.674Z,9.78
2023-03-05T10:52:08.841Z,9.87
2023-03-05T10:53:10.311Z,9.92
2023-03-05T10:54:25.383Z,9.94
2023-03-05T10:55:26.989Z,10.07
2023-03-05T10:56:31.843Z,10.12
2023-03-05T10:57:33.443Z,10.06
2023-03-05T10:58:35.044Z,9.97
2023-03-05T10:59:36.647Z,10.02
2023-03-05T11:00:38.311Z,10.02
2023-03-05T11:01:39.969Z,10.08
2023-03-05T11:03:06.482Z,10.15
2023-03-05T11:04:26.936Z,10.25
2023-03-05T11:05:37.351Z,10.32
2023-03-05T11:06:41.539Z,10.36
2023-03-05T11:07:43.091Z,10.44
2023-03-05T11:08:45.309Z,10.41
2023-03-05T11:10:15.265Z,10.47
2023-03-05T11:11:19.578Z,10.49
2023-03-05T11:12:26.497Z,10.61
2023-03-05T11:13:29.253Z,10.61
2023-03-05T11:14:33.547Z,10.64
2023-03-05T11:15:35.171Z,10.59
2023-03-05T11:16:48.872Z,10.47
2023-03-05T11:18:08.100Z,10.64
2023-03-05T11:19:34.647Z,10.69
2023-03-05T11:20:36.916Z,10.57
2023-03-05T11:21:38.493Z,10.49
2023-03-05T11:22:40.042Z,10.51
2023-03-05T11:23:41.675Z,10.62
2023-03-05T11:24:46.713Z,10.67
2023-03-05T11:25:53.116Z,10.61
2023-03-05T11:26:57.584Z,10.61
2023-03-05T11:28:01.917Z,10.58
2023-03-05T11:29:04.991Z,10.58
2023-03-05T11:30:20.726Z,10.62
2023-03-05T11:31:26.333Z,10.63
2023-03-05T11:32:29.385Z,10.66
2023-03-05T11:33:31.514Z,10.71
2023-03-05T11:34:35.507Z,10.81
2023-03-05T11:35:39.786Z,10.96
2023-03-05T11:36:43.427Z,10.97
2023-03-05T11:38:00.361Z,10.85
2023-03-05T11:39:07.886Z,10.79
2023-03-05T11:40:25.254Z,10.79
2023-03-05T11:41:35.729Z,10.74
2023-03-05T11:42:40.366Z,10.82
2023-03-05T11:43:44.015Z,10.82
2023-03-05T11:44:48.442Z,10.84
2023-03-05T11:45:55.637Z,10.83
2023-03-05T11:47:35.813Z,10.82
2023-03-05T11:48:39.722Z,10.81
2023-03-05T11:49:46.170Z,10.90
2023-03-05T11:50:56.340Z,10.97
2023-03-05T11:52:20.513Z,10.92
2023-03-05T11:53:25.745Z,10.78
2023-03-05T11:54:36.575Z,10.64
2023-03-05T11:55:44.136Z,10.68
2023-03-05T11:56:46.386Z,10.68
2023-03-05T11:58:16.055Z,10.82
2023-03-05T11:59:30.295Z,10.77
2023-03-05T12:00:34.570Z,10.65
2023-03-05T12:01:47.521Z,10.63
2023-03-05T12:02:52.836Z,10.72
2023-03-05T12:03:55.696Z,10.81
2023-03-05T12:04:59.522Z,10.86
2023-03-05T12:06:13.286Z,10.85
2023-03-05T12:07:20.731Z,10.87
2023-03-05T12:08:29.550Z,10.95
2023-03-05T12:09:42.220Z,11.09
2023-03-05T12:10:44.351Z,11.12
2023-03-05T12:11:49.937Z,11.20
2023-03-05T12:12:54.518Z,11.22
2023-03-05T12:14:20.015Z,11.27
2023-03-05T12:15:49.189Z,11.28
2023-03-05T12:16:58.892Z,11.30
2023-03-05T12:18:32.803Z,11.33
2023-03-05T12:19:45.732Z,11.36
2023-03-05T12:20:50.074Z,11.38
2023-03-05T12:21:53.039Z,11.35
2023-03-05T12:22:57.501Z,11.34
2023-03-05T12:24:01.832Z,11.31
2023-03-05T12:25:35.351Z,11.36
2023-03-05T12:26:59.237Z,11.40
2023-03-05T12:28:01.560Z,11.40
2023-03-05T12:29:03.231Z,11.47
2023-03-05T12:30:05.476Z,11.58
2023-03-05T12:31:09.750Z,11.60
2023-03-05T12:32:28.974Z,11.59
2023-03-05T12:33:44.291Z,11.55
2023-03-05T12:34:48.419Z,11.52
2023-03-05T12:35:49.996Z,11.54
2023-03-05T12:36:51.592Z,11.47
2023-03-05T12:37:53.095Z,11.48
2023-03-05T12:38:56.294Z,11.53
2023-03-05T12:39:59.031Z,11.55
2023-03-05T12:41:21.979Z,11.52
2023-03-05T12:42:29.737Z,11.43
2023-03-05T12:43:33.924Z,11.38
2023-03-05T12:44:35.625Z,11.34
2023-03-05T12:45:40.027Z,11.31
2023-03-05T12:47:10.881Z,11.30
2023-03-05T12:48:12.772Z,11.24
2023-03-05T12:49:20.623Z,11.19
2023-03-05T12:50:28.295Z,11.22
2023-03-05T12:51:33.913Z,11.23
2023-03-05T12:52:35.579Z,11.24
2023-03-05T12:53:37.137Z,11.25
2023-03-05T12:54:42.380Z,11.25
2023-03-05T12:55:45.702Z,11.29
2023-03-05T12:56:48.044Z,11.31
2023-03-05T12:58:04.191Z,11.21
2023-03-05T12:59:06.020Z,11.11
2023-03-05T13:00:21.627Z,11.09
2023-03-05T13:01:36.192Z,11.13
2023-03-05T13:02:44.984Z,11.24
2023-03-05T13:04:05.231Z,11.28
2023-03-05T13:05:33.873Z,11.35
2023-03-05T13:06:36.733Z,11.33
2023-03-05T13:07:38.280Z,11.32
2023-03-05T13:08:39.877Z,11.35
2023-03-05T13:09:52.479Z,11.35
2023-03-05T13:10:57.813Z,11.36
2023-03-05T13:11:59.867Z,11.45
2023-03-05T13:13:02.680Z,11.62
2023-03-05T13:14:04.524Z,11.60
2023-03-05T13:15:09.401Z,11.49
2023-03-05T13:16:24.039Z,11.44
2023-03-05T13:17:33.726Z,11.50
2023-03-05T13:18:36.818Z,11.58
2023-03-05T13:19:41.852Z,11.58
2023-03-05T13:20:43.470Z,11.66
2023-03-05T13:21:45.170Z,11.66
2023-03-05T13:22:46.699Z,11.67
2023-03-05T13:23:57.660Z,11.54
2023-03-05T13:25:14.540Z,11.60
2023-03-05T13:26:19.289Z,11.53
2023-03-05T13:27:30.046Z,11.59
2023-03-05T13:28:32.707Z,11.54
2023-03-05T13:29:34.217Z,11.58
2023-03-05T13:30:36.185Z,11.57
2023-03-05T13:31:49.576Z,11.52
2023-03-05T13:32:53.054Z,11.45
2023-03-05T13:33:59.639Z,11.42
2023-03-05T13:35:01.461Z,11.42
2023-03-05T13:36:05.101Z,11.42
2023-03-05T13:37:17.327Z,11.46
2023-03-05T13:38:29.281Z,11.49
2023-03-05T13:39:56.481Z,11.40
2023-03-05T13:41:25.536Z,11.35
2023-03-05T13:42:32.790Z,11.39
2023-03-05T13:43:41.781Z,11.40
2023-03-05T13:44:43.423Z,11.45
2023-03-05T13:45:53.867Z,11.39
2023-03-05T13:47:18.136Z,11.36
2023-03-05T13:48:20.159Z,11.33
2023-03-05T13:49:23.233Z,11.39
2023-03-05T13:50:31.571Z,11.44
2023-03-05T13:51:45.547Z,11.45
2023-03-05T13:52:47.077Z,11.43
2023-03-05T13:53:49.271Z,11.38
2023-03-05T13:54:50.883Z,11.43
2023-03-05T13:55:56.743Z,11.40
2023-03-05T13:57:02.263Z,11.40
2023-03-05T13:58:03.836Z,11.48
2023-03-05T13:59:20.381Z,11.52
2023-03-05T14:00:26.141Z,11.48
2023-03-05T14:01:40.661Z,11.41
2023-03-05T14:02:44.258Z,11.34
2023-03-05T14:03:50.335Z,11.37
2023-03-05T14:04:51.979Z,11.34
2023-03-05T14:05:54.313Z,11.23
2023-03-05T14:07:01.633Z,11.20
2023-03-05T14:08:03.987Z,11.15
2023-03-05T14:09:18.660Z,11.14
2023-03-05T14:10:36.184Z,11.12
2023-03-05T14:11:37.760Z,11.05
2023-03-05T14:12:42.586Z,11.05
2023-03-05T14:13:47.203Z,11.08
2023-03-05T14:14:49.122Z,11.13
2023-03-05T14:16:11.593Z,11.13